createdAt,value
2022-12-15T01:16:05.193Z,94792.81
2022-12-15T01:18:32.397Z,94794.88
2022-12-15T01:20:59.983Z,94800.38
2022-12-15T01:23:27.171Z,94803.69
2022-12-15T01:25:56.552Z,94815.97
2022-12-15T01:28:25.864Z,94816.84
2022-12-15T01:30:52.915Z,94814.34
2022-12-15T01:33:21.574Z,94814.78
2022-12-15T01:35:50.502Z,94829.41
2022-12-15T01:38:17.500Z,94835.69
2022-12-15T01:40:44.463Z,94833.44
2022-12-15T01:43:12.936Z,94828.34
2022-12-15T01:45:39.759Z,94828.94
2022-12-15T01:48:08.285Z,94832.91
2022-12-15T01:50:35.969Z,94823.22
2022-12-15T01:53:03.015Z,94827.34
2022-12-15T01:55:31.776Z,94818.56
2022-12-15T01:58:02.848Z,94819.78
2022-12-15T02:00:31.541Z,94825.09
2022-12-15T02:03:01.602Z,94827.78
2022-12-15T02:05:29.820Z,94827.94
2022-12-15T02:07:57.475Z,94819.72
2022-12-15T02:10:24.880Z,94822.69
2022-12-15T02:12:51.885Z,94824.56
2022-12-15T02:15:19.676Z,94821.50
2022-12-15T02:17:46.865Z,94823.84
2022-12-15T02:20:15.949Z,94817.97
2022-12-15T02:22:42.988Z,94816.31
2022-12-15T02:25:09.959Z,94808.72
2022-12-15T02:27:37.232Z,94800.88
2022-12-15T02:30:08.659Z,94809.25
2022-12-15T02:32:36.704Z,94804.72
2022-12-15T02:35:03.656Z,94796.88
2022-12-15T02:37:31.215Z,94790.31
2022-12-15T02:39:57.793Z,94793.19
2022-12-15T02:42:24.920Z,94794.28
2022-12-15T02:44:52.087Z,94793.72
2022-12-15T02:47:21.156Z,94798.97
2022-12-15T02:49:51.973Z,94801.50
2022-12-15T02:52:21.025Z,94807.78
2022-12-15T02:54:50.494Z,94801.22
2022-12-15T02:57:17.620Z,94788.59
2022-12-15T02:59:47.549Z,94796.34
2022-12-15T03:02:15.843Z,94794.47
2022-12-15T03:04:44.723Z,94784.59
2022-12-15T03:07:11.594Z,94785.78
2022-12-15T03:09:39.303Z,94791.47
2022-12-15T03:12:08.544Z,94789.53
2022-12-15T03:14:37.563Z,94787.41
2022-12-15T03:17:04.283Z,94788.00
2022-12-15T03:19:34.534Z,94792.94
2022-12-15T03:22:08.728Z,94785.28
2022-12-15T03:24:36.588Z,94784.63
2022-12-15T03:27:03.495Z,94787.97
2022-12-15T03:29:30.351Z,94790.03
2022-12-15T03:31:57.265Z,94788.84
2022-12-15T03:34:24.648Z,94794.81
2022-12-15T03:36:51.518Z,94792.41
2022-12-15T03:39:18.432Z,94799.19
2022-12-15T03:41:47.180Z,94788.44
2022-12-15T03:44:15.094Z,94795.94
2022-12-15T03:46:41.682Z,94794.72
2022-12-15T03:49:09.504Z,94793.41
2022-12-15T03:51:36.046Z,94790.44
2022-12-15T03:54:02.983Z,94788.94
2022-12-15T03:56:29.905Z,94787.19
2022-12-15T03:58:59.733Z,94779.69
2022-12-15T04:01:34.821Z,94768.53
2022-12-15T04:04:02.607Z,94772.22
2022-12-15T04:06:31.533Z,94770.84
2022-12-15T04:09:05.074Z,94769.66
2022-12-15T04:11:33.219Z,94771.09
2022-12-15T04:14:23.663Z,94767.00
2022-12-15T04:17:10.743Z,94764.44
2022-12-15T04:19:57.800Z,94767.63
2022-12-15T04:22:25.408Z,94762.56
2022-12-15T04:24:52.970Z,94765.34
2022-12-15T04:27:21.551Z,94759.31
2022-12-15T04:29:50.347Z,94763.75
2022-12-15T04:32:17.893Z,94758.41
2022-12-15T04:34:46.481Z,94757.09
2022-12-15T04:37:26.130Z,94756.22
2022-12-15T04:43:33.500Z,94766.84
2022-12-15T05:20:33.218Z,94727.72
2022-12-15T05:23:00.139Z,94728.25
2022-12-15T05:25:27.188Z,94722.41
2022-12-15T05:27:55.824Z,94728.66
2022-12-15T05:30:23.126Z,94735.13
2022-12-15T05:32:50.044Z,94720.28
2022-12-15T05:35:23.198Z,94721.63
2022-12-15T05:37:50.446Z,94722.34
2022-12-15T05:40:17.380Z,94724.88
2022-12-15T05:42:49.980Z,94722.78
2022-12-15T05:45:22.307Z,94727.97
2022-12-15T05:47:51.204Z,94732.19
2022-12-15T05:50:19.397Z,94725.09
2022-12-15T05:52:49.497Z,94728.31
2022-12-15T05:55:20.020Z,94731.78
2022-12-15T06:00:37.972Z,94734.13
2022-12-15T06:03:09.546Z,94731.97
2022-12-15T06:42:05.827Z,94749.94
2022-12-15T06:44:36.980Z,94763.88
2022-12-15T06:50:11.949Z,94766.56
2022-12-15T06:52:39.622Z,94775.28
2022-12-15T06:55:08.230Z,94777.41
2022-12-15T07:00:26.265Z,94796.22
2022-12-15T07:02:53.233Z,94792.41
2022-12-15T07:05:20.651Z,94794.78
2022-12-15T07:10:40.252Z,94801.41
2022-12-15T07:15:58.635Z,94817.63
2022-12-15T07:18:27.951Z,94821.75
2022-12-15T07:20:56.355Z,94825.22
2022-12-15T07:23:53.506Z,94823.03
2022-12-15T07:26:20.365Z,94828.19
2022-12-15T07:28:49.321Z,94829.13
2022-12-15T07:31:29.457Z,94825.50
2022-12-15T07:36:41.658Z,94829.66
2022-12-15T07:39:20.496Z,94824.72
2022-12-15T07:42:01.125Z,94812.25
2022-12-15T07:44:35.170Z,94806.41
2022-12-15T07:47:15.369Z,94809.59
2022-12-15T07:52:28.012Z,94798.41
2022-12-15T08:28:46.282Z,94855.44
2022-12-15T08:31:17.424Z,94856.44
2022-12-15T08:33:46.253Z,94859.81
2022-12-15T08:36:17.341Z,94864.84
2022-12-15T08:38:45.276Z,94858.72
2022-12-15T08:41:13.606Z,94845.97
2022-12-15T08:43:47.474Z,94847.06
2022-12-15T08:46:19.534Z,94849.69
2022-12-15T08:48:46.442Z,94843.47
2022-12-15T08:51:22.224Z,94841.19
2022-12-15T08:53:50.227Z,94850.59
2022-12-15T09:02:16.815Z,94810.97
2022-12-15T09:04:45.439Z,94803.47
2022-12-15T09:07:12.741Z,94801.97
2022-12-15T09:09:44.350Z,94809.31
2022-12-15T09:12:20.398Z,94821.25
2022-12-15T09:15:01.586Z,94823.41
2022-12-15T09:17:33.491Z,94824.78
2022-12-15T09:20:03.490Z,94822.25
2022-12-15T09:22:34.696Z,94828.50
2022-12-15T09:25:09.231Z,94817.72
2022-12-15T09:33:12.831Z,94815.59
2022-12-15T09:35:58.093Z,94813.31
2022-12-15T09:38:29.496Z,94812.06
2022-12-15T09:40:57.077Z,94817.16
2022-12-15T09:43:35.750Z,94811.91
2022-12-15T09:46:08.438Z,94814.28
2022-12-15T09:48:36.821Z,94815.09
2022-12-15T09:51:05.512Z,94818.59
2022-12-15T09:53:54.624Z,94806.59
2022-12-15T09:56:26.407Z,94812.31
2022-12-15T09:58:54.113Z,94807.41
2022-12-15T10:01:24.809Z,94804.53
2022-12-15T10:04:04.241Z,94803.19
2022-12-15T10:06:35.953Z,94794.56
2022-12-15T10:09:04.867Z,94797.91
2022-12-15T10:11:32.092Z,94789.13
2022-12-15T10:14:02.558Z,94785.19
2022-12-15T10:19:35.622Z,94779.19
2022-12-15T10:22:08.007Z,94779.00
2022-12-15T10:27:24.464Z,94763.41
2022-12-15T10:29:56.052Z,94760.72
2022-12-15T10:32:40.993Z,94750.06
2022-12-15T10:35:16.338Z,94748.16
2022-12-15T10:40:25.115Z,94744.66
2022-12-15T10:42:55.024Z,94741.03
2022-12-15T10:45:24.622Z,94734.63
2022-12-15T10:47:59.734Z,94726.72
2022-12-15T10:50:40.641Z,94720.34
2022-12-15T10:53:13.179Z,94715.09
2022-12-15T10:55:43.640Z,94703.38
2022-12-15T10:58:30.512Z,94701.94
2022-12-15T11:01:08.702Z,94692.28
2022-12-15T11:03:38.722Z,94688.38
2022-12-15T11:06:13.535Z,94691.72
2022-12-15T11:08:42.685Z,94683.47
2022-12-15T11:11:14.623Z,94684.72
2022-12-15T11:13:44.663Z,94677.09
2022-12-15T11:16:18.442Z,94665.28
2022-12-15T11:18:50.319Z,94661.44
2022-12-15T11:21:19.279Z,94659.69
2022-12-15T11:57:27.961Z,94598.22
2022-12-15T11:59:57.509Z,94581.91
2022-12-15T12:02:34.633Z,94567.19
2022-12-15T12:55:43.044Z,94513.28
2022-12-15T12:58:12.009Z,94518.28
2022-12-15T13:00:39.484Z,94522.25
2022-12-15T13:03:13.926Z,94513.94
2022-12-15T13:05:42.437Z,94509.00
2022-12-15T13:08:10.165Z,94500.47
2022-12-15T13:10:39.568Z,94495.03
2022-12-15T13:13:08.873Z,94489.97
2022-12-15T13:15:39.534Z,94493.09
2022-12-15T13:18:06.285Z,94500.78
2022-12-15T13:20:38.473Z,94488.81
2022-12-15T13:23:05.684Z,94489.72
2022-12-15T13:25:33.323Z,94495.91
2022-12-15T13:28:00.501Z,94499.47
2022-12-15T13:30:27.407Z,94501.56
2022-12-15T13:32:55.285Z,94496.38
2022-12-15T13:35:23.218Z,94495.50
2022-12-15T13:37:55.062Z,94483.53
2022-12-15T13:40:23.963Z,94478.41
2022-12-15T13:45:55.510Z,94475.47
2022-12-15T13:48:23.124Z,94471.53
2022-12-15T13:50:51.648Z,94469.06
2022-12-15T13:53:21.577Z,94472.88
2022-12-15T13:55:51.040Z,94474.25
2022-12-15T14:01:05.224Z,94466.31
2022-12-15T14:03:35.914Z,94456.72
2022-12-15T14:06:03.483Z,94459.09
2022-12-15T14:08:37.853Z,94455.00
2022-12-15T14:11:16.818Z,94451.56
2022-12-15T14:14:01.300Z,94445.91
2022-12-15T14:16:37.813Z,94455.56
2022-12-15T14:19:06.753Z,94453.59
2022-12-15T14:21:37.002Z,94462.06
2022-12-15T14:24:38.072Z,94456.00
2022-12-15T14:27:07.574Z,94462.09
2022-12-15T14:40:36.948Z,94472.78
2022-12-15T14:43:06.620Z,94476.53
2022-12-15T14:51:13.687Z,94488.50
2022-12-15T14:53:43.270Z,94501.94
2022-12-15T15:04:55.704Z,94500.91
2022-12-15T15:07:32.480Z,94515.69
2022-12-15T15:10:10.248Z,94506.91
2022-12-15T15:12:39.850Z,94516.25
2022-12-15T15:15:08.002Z,94514.41
2022-12-15T15:17:37.366Z,94515.47
2022-12-15T15:20:12.499Z,94510.84
2022-12-15T15:22:43.698Z,94501.59
2022-12-15T15:25:22.922Z,94501.88
2022-12-15T15:27:51.017Z,94501.50
2022-12-15T15:30:18.116Z,94496.81
2022-12-15T15:32:46.652Z,94487.34
2022-12-15T15:38:10.906Z,94479.00
2022-12-15T15:40:39.996Z,94469.06
2022-12-15T15:43:20.361Z,94464.09
2022-12-15T15:45:47.209Z,94460.38
2022-12-15T15:48:16.217Z,94459.13
2022-12-15T15:50:44.254Z,94453.25
2022-12-15T15:53:12.786Z,94452.91
2022-12-15T15:55:40.149Z,94434.84
2022-12-15T15:58:12.773Z,94429.38
2022-12-15T16:01:27.101Z,94425.41
2022-12-15T16:03:28.071Z,94427.44
2022-12-15T16:05:56.263Z,94425.66
2022-12-15T16:08:33.217Z,94416.53
2022-12-15T16:11:00.834Z,94413.81
2022-12-15T16:13:28.279Z,94419.78
2022-12-15T16:16:01.437Z,94426.56
2022-12-15T16:18:36.351Z,94427.81
2022-12-15T16:21:05.753Z,94429.78
2022-12-15T16:23:42.830Z,94422.44
2022-12-15T16:29:24.063Z,94429.59
2022-12-15T16:31:57.706Z,94438.03
2022-12-15T16:34:25.004Z,94433.09
2022-12-15T16:36:55.242Z,94433.72
2022-12-15T16:39:23.335Z,94431.00
2022-12-15T16:41:54.324Z,94434.91
2022-12-15T16:47:23.180Z,94430.00
2022-12-15T16:49:59.742Z,94434.91
2022-12-15T16:52:36.376Z,94435.47
2022-12-15T16:55:07.782Z,94443.25
2022-12-15T16:57:37.399Z,94438.16
2022-12-15T17:00:08.861Z,94439.66
2022-12-15T17:02:44.612Z,94439.47
2022-12-15T17:08:10.020Z,94449.97
2022-12-15T17:10:41.009Z,94440.72
2022-12-15T17:13:19.161Z,94442.34
2022-12-15T17:15:46.376Z,94440.91
2022-12-15T17:18:13.638Z,94429.66
2022-12-15T17:20:46.968Z,94438.94
2022-12-15T17:23:16.188Z,94438.28
2022-12-15T17:26:19.571Z,94431.31
2022-12-15T17:28:36.060Z,94436.81
2022-12-15T17:34:21.007Z,94429.59
2022-12-15T17:36:48.926Z,94423.84
2022-12-15T17:39:26.696Z,94429.50
2022-12-15T17:42:04.489Z,94424.84
2022-12-15T17:44:37.262Z,94431.28
2022-12-15T17:47:11.673Z,94429.19
2022-12-15T17:49:44.989Z,94445.19
2022-12-15T17:52:14.598Z,94435.88
2022-12-15T17:54:43.347Z,94445.84
2022-12-15T17:57:16.069Z,94456.59
2022-12-15T17:59:43.381Z,94456.09
2022-12-15T18:04:59.324Z,94449.72
2022-12-15T18:22:49.840Z,94455.88
2022-12-15T18:25:16.338Z,94465.13
2022-12-15T18:40:49.248Z,94459.88
2022-12-15T18:43:18.215Z,94457.47
2022-12-15T18:45:50.754Z,94452.09
2022-12-15T18:48:31.330Z,94455.91
2022-12-15T18:50:59.984Z,94456.16
2022-12-15T18:53:28.467Z,94463.22
2022-12-15T18:56:00.755Z,94463.06
2022-12-15T18:58:39.445Z,94458.81
2022-12-15T19:01:06.531Z,94470.13
2022-12-15T19:06:14.631Z,94478.03
2022-12-15T19:08:42.156Z,94481.53
2022-12-15T19:11:11.900Z,94490.13
2022-12-15T19:13:46.066Z,94484.16
2022-12-15T19:16:12.799Z,94491.91
2022-12-15T19:18:43.809Z,94495.38
2022-12-15T19:21:10.683Z,94492.50
2022-12-15T19:23:39.694Z,94499.19
2022-12-15T19:26:09.250Z,94504.72
2022-12-15T19:31:42.136Z,94499.66
2022-12-15T19:34:11.473Z,94501.00
2022-12-15T19:36:42.974Z,94496.47
2022-12-15T19:39:16.641Z,94492.34
2022-12-15T19:41:46.188Z,94497.91
2022-12-15T19:44:16.629Z,94498.31
2022-12-15T19:46:43.143Z,94495.41
2022-12-15T20:08:05.933Z,94496.16
2022-12-15T20:10:36.037Z,94494.34
2022-12-15T20:13:03.585Z,94503.50
2022-12-15T20:15:30.358Z,94499.84
2022-12-15T20:27:33.940Z,94512.09
2022-12-15T20:30:03.215Z,94506.28
2022-12-15T20:32:35.101Z,94507.63
2022-12-15T20:35:07.331Z,94506.03
2022-12-15T20:37:38.392Z,94517.94
2022-12-15T20:40:09.201Z,94506.34
2022-12-15T20:42:38.689Z,94515.59
2022-12-15T20:45:07.723Z,94524.72
2022-12-15T20:47:35.106Z,94523.75
2022-12-15T20:50:02.392Z,94527.28
2022-12-15T20:52:29.526Z,94538.38
2022-12-15T20:54:56.585Z,94545.56
2022-12-15T20:57:29.755Z,94543.22
2022-12-15T21:00:00.475Z,94538.72
2022-12-15T21:02:30.631Z,94541.50
2022-12-15T21:05:00.231Z,94536.81
2022-12-15T22:12:21.480Z,94582.53
2022-12-15T22:14:47.984Z,94581.53
2022-12-15T23:44:14.477Z,94628.72
